Glen, MS (38846)

10:26 PM CDT del 26 Maggio 2015 (GMT -0500)
Downtown Corinth | | Change Station
CLOSE
Current Station
Stazione meteo personale
Location: Corinth, MS
Altitudine: 471 ft
Stazioni meteo nelle vicinanze

Alt. 471 ft 34.93 °N, 88.51 °W | Updated 52 seconds ago

Sereno
Sereno
71.7 °F
Sembra 71.7 °F
N
0.0
Vento Variabile Vento da SSO
Gusts 0.0 mph

Oggi
Massima -- | Minima -- °F
--% Possibilità di precip.
Ieri
Massima -- | Minima -- °F
Precip. -- in
5:43 AM 7:57 PM
Gobba a ponente, 63% visible
Pressione 30.11 in
Visibilità 10.0 miglia
Nuvole Alcuni 3600 ft
Punto di rugiada 68 °F
Umidità 87%
Piovosità 0.00 in
Spessore del manto nevoso Non disponibile.
Raggi UV 0.0 fuori da 12
Polline 3.90 fuori da 12
Qualità dell'aria Non disponibile.
Flu Activity No Activity
METAR KCRX 270315Z AUTO 19004KT 10SM FEW036 22/19 A3011 RMK AO2

More Conditions Fewer Conditions

Pressione 30.11 in
Visibilità 10.0 miglia
Nuvole Alcuni 3600 ft
Punto di rugiada 68 °F
Umidità 87%
Piovosità 0.00 in
Spessore del manto nevoso Non disponibile.
Raggi UV 0.0 fuori da 12
Polline 3.90 fuori da 12
Qualità dell'aria Non disponibile.
Flu Activity No Activity
METAR KCRX 270315Z AUTO 19004KT 10SM FEW036 22/19 A3011 RMK AO2

More Conditions Fewer Conditions

10-Day Weather Forecast

Almanac

Astronomia

May. 26, 2015 Alba Tramonto
Ora attuale
Crepuscolo civile
Crepuscolo nautico
Crepuscolo astronomico
Luna
Estensione della luce visibile
Lunghezza del giorno
Tomorrow will be .
, % of the Moon is Illuminated

Gli estremi di oggi

State Highs State Lows

Community

WunderPhotos

Upload Photos

1,824,580 foto caricate!

WunderBlogs® & News

Nearby

Qualità dell'aria

  Qualità dell'aria Indice AQ Inquinante
Not available.

Profondità neve

Stazione Profondità Altitudine

Attività sismica

Città  Distanza Mag. Data & Ora
Minimo Magnitudo Mostrato è 2.5.

Temperature delle acque costiere

Località Temperatura

Stations

Stazioni meteo nelle vicinanze

Ubicazione della stazione Temp. Raffreddamento del vento Punto di rugiada Umidità Vento Precip. Alt. Aggiornato Tipo